createdAt,value
2018-06-20T00:00:35.381Z,63.20
2018-06-20T00:03:04.719Z,62.88
2018-06-20T00:05:34.061Z,63.16
2018-06-20T00:14:09.017Z,64.35
2018-06-20T00:16:38.476Z,64.40
2018-06-20T00:19:07.447Z,64.83
2018-06-20T00:21:36.589Z,64.68
2018-06-20T00:24:06.023Z,64.46
2018-06-20T00:26:35.501Z,65.04
2018-06-20T00:29:07.683Z,65.25
2018-06-20T00:31:37.176Z,65.27
2018-06-20T00:34:06.571Z,65.29
2018-06-20T00:36:36.613Z,64.69
2018-06-20T00:39:08.633Z,64.39
2018-06-20T00:41:38.733Z,64.75
2018-06-20T00:44:08.292Z,64.66
2018-06-20T00:46:37.405Z,65.45
2018-06-20T00:49:06.797Z,65.61
2018-06-20T00:51:35.935Z,66.60
2018-06-20T00:54:05.069Z,66.69
2018-06-20T00:56:34.198Z,67.02
2018-06-20T00:59:06.732Z,68.20
2018-06-20T01:01:38.037Z,67.79
2018-06-20T01:04:07.230Z,68.37
2018-06-20T01:06:36.277Z,68.64
2018-06-20T01:09:14.331Z,68.78
2018-06-20T01:11:43.464Z,69.53
2018-06-20T01:14:13.532Z,70.10
2018-06-20T01:16:42.600Z,70.15
2018-06-20T01:19:11.600Z,71.07
2018-06-20T01:21:40.921Z,71.73
2018-06-20T01:24:09.951Z,72.01
2018-06-20T01:26:43.327Z,72.70
2018-06-20T01:38:36.806Z,74.24
2018-06-20T01:41:06.055Z,74.99
2018-06-20T01:43:35.343Z,75.29
2018-06-20T01:46:04.766Z,75.01
2018-06-20T01:48:37.820Z,75.25
2018-06-20T01:51:07.766Z,75.58
2018-06-20T01:53:37.086Z,75.43
2018-06-20T01:56:06.368Z,75.40
2018-06-20T01:58:37.052Z,75.42
2018-06-20T02:09:17.152Z,76.11
2018-06-20T02:11:46.248Z,75.87
2018-06-20T02:14:15.513Z,75.60
2018-06-20T02:16:44.718Z,76.31
2018-06-20T02:19:14.406Z,76.01
2018-06-20T02:21:49.942Z,75.95
2018-06-20T02:24:19.301Z,76.23
2018-06-20T02:26:53.995Z,76.28
2018-06-20T02:29:23.221Z,76.39
2018-06-20T02:31:52.356Z,76.68
2018-06-20T02:34:21.480Z,76.40
2018-06-20T02:36:52.628Z,76.70
2018-06-20T02:39:36.602Z,76.76
2018-06-20T02:52:53.037Z,75.42
2018-06-20T02:55:22.175Z,74.78
2018-06-20T02:57:51.269Z,74.41
2018-06-20T03:00:20.421Z,73.91
2018-06-20T03:02:50.045Z,73.55
2018-06-20T03:05:19.174Z,73.34
2018-06-20T03:07:48.553Z,73.04
2018-06-20T03:10:17.660Z,72.37
2018-06-20T03:12:46.702Z,72.32
2018-06-20T03:15:16.010Z,71.58
2018-06-20T03:17:45.227Z,71.58
2018-06-20T03:20:14.309Z,71.27
2018-06-20T03:22:43.351Z,70.40
2018-06-20T03:25:12.437Z,69.84
2018-06-20T03:27:41.384Z,69.38
2018-06-20T03:30:10.427Z,68.32
2018-06-20T03:32:39.489Z,68.19
2018-06-20T03:35:08.540Z,67.65
2018-06-20T03:37:37.916Z,66.19
2018-06-20T03:40:06.979Z,66.54
2018-06-20T03:42:36.198Z,65.76
2018-06-20T03:45:05.383Z,64.68
2018-06-20T03:47:34.386Z,63.57
2018-06-20T03:50:03.295Z,62.59
2018-06-20T03:52:32.311Z,61.61
2018-06-20T03:55:02.068Z,61.55
2018-06-20T03:57:31.045Z,60.91
2018-06-20T04:00:00.208Z,60.26
2018-06-20T04:02:29.142Z,59.69
2018-06-20T04:04:58.290Z,59.04
2018-06-20T04:07:27.504Z,57.23
2018-06-20T04:09:56.439Z,58.46
2018-06-20T04:12:25.647Z,57.14
2018-06-20T04:14:54.827Z,56.48
2018-06-20T04:17:24.032Z,55.52
2018-06-20T04:19:53.054Z,55.51
2018-06-20T04:22:22.218Z,54.20
2018-06-20T04:24:51.444Z,53.84
2018-06-20T04:27:20.750Z,53.93
2018-06-20T04:29:50.077Z,52.83
2018-06-20T04:32:19.312Z,53.70
2018-06-20T04:34:48.713Z,53.48
2018-06-20T04:37:17.809Z,52.70
2018-06-20T04:39:46.939Z,52.13
2018-06-20T04:42:17.747Z,52.21
2018-06-20T04:44:47.150Z,51.16
2018-06-20T04:47:18.666Z,50.94
2018-06-20T05:01:52.441Z,46.91
2018-06-20T05:04:21.558Z,46.88
2018-06-20T05:06:50.644Z,45.70
2018-06-20T05:09:21.818Z,45.23
2018-06-20T05:14:44.457Z,44.94
2018-06-20T05:17:13.727Z,44.91
2018-06-20T05:19:43.975Z,43.77
2018-06-20T05:22:13.027Z,43.66
2018-06-20T05:24:41.949Z,43.57
2018-06-20T05:27:11.151Z,42.97
2018-06-20T05:29:40.132Z,41.60
2018-06-20T05:32:09.178Z,41.45
2018-06-20T05:34:38.290Z,41.67
2018-06-20T05:37:07.299Z,42.04
2018-06-20T05:39:36.358Z,41.51
2018-06-20T05:42:05.536Z,41.05
2018-06-20T05:44:34.489Z,39.42
2018-06-20T05:47:03.387Z,40.35
2018-06-20T05:49:32.358Z,40.10
2018-06-20T05:52:01.326Z,40.24
2018-06-20T05:54:30.438Z,41.12
2018-06-20T05:56:59.439Z,40.24
2018-06-20T05:59:28.445Z,39.82
2018-06-20T06:01:58.031Z,39.83
2018-06-20T06:04:27.043Z,39.17
2018-06-20T06:06:56.078Z,39.73
2018-06-20T06:09:25.393Z,39.73
2018-06-20T06:11:54.489Z,40.25
2018-06-20T06:14:23.501Z,40.24
2018-06-20T06:16:52.813Z,40.28
2018-06-20T06:19:22.461Z,40.19
2018-06-20T06:21:52.544Z,39.80
2018-06-20T06:24:21.552Z,40.42
2018-06-20T06:26:50.760Z,41.53
2018-06-20T06:29:20.486Z,41.94
2018-06-20T06:31:49.342Z,42.27
2018-06-20T06:34:18.386Z,42.44
2018-06-20T06:36:47.403Z,43.51
2018-06-20T06:39:16.414Z,43.41
2018-06-20T06:41:45.592Z,44.66
2018-06-20T06:44:14.457Z,44.59
2018-06-20T06:46:43.485Z,42.84
2018-06-20T06:49:12.526Z,43.17
2018-06-20T06:51:41.485Z,43.20
2018-06-20T06:54:10.398Z,42.18
2018-06-20T06:56:39.446Z,42.48
2018-06-20T06:59:08.507Z,44.00
2018-06-20T07:01:37.382Z,41.71
2018-06-20T07:04:06.391Z,42.59
2018-06-20T07:06:35.314Z,42.00
2018-06-20T07:09:05.584Z,42.38
2018-06-20T07:11:34.480Z,41.70
2018-06-20T07:14:03.437Z,41.90
2018-06-20T07:16:32.455Z,42.03
2018-06-20T07:19:01.386Z,40.73
2018-06-20T07:21:30.355Z,40.75
2018-06-20T07:23:59.295Z,39.93
2018-06-20T07:26:28.205Z,41.66
2018-06-20T07:28:57.208Z,40.95
2018-06-20T07:31:26.199Z,41.45
2018-06-20T07:33:55.360Z,42.14
2018-06-20T07:36:24.576Z,42.77
2018-06-20T07:38:53.515Z,39.81
2018-06-20T07:41:22.541Z,41.19
2018-06-20T07:43:51.553Z,39.38
2018-06-20T07:46:20.646Z,38.79
2018-06-20T07:48:49.614Z,37.61
2018-06-20T07:51:18.544Z,38.51
2018-06-20T07:53:47.440Z,38.80
2018-06-20T07:56:16.363Z,38.41
2018-06-20T07:58:50.492Z,37.63
2018-06-20T08:01:35.681Z,38.61
2018-06-20T08:04:09.864Z,39.08
2018-06-20T08:06:43.833Z,38.35
2018-06-20T08:09:17.886Z,37.84
2018-06-20T08:11:51.891Z,38.34
2018-06-20T08:14:25.845Z,37.43
2018-06-20T08:17:00.371Z,33.19
2018-06-20T08:19:34.339Z,35.26
2018-06-20T08:22:03.308Z,33.46
2018-06-20T08:24:32.330Z,34.33
2018-06-20T08:27:01.332Z,34.62
2018-06-20T08:29:30.194Z,34.56
2018-06-20T08:31:59.202Z,35.08
2018-06-20T08:34:28.114Z,33.98
2018-06-20T08:36:57.109Z,34.81
2018-06-20T08:39:25.946Z,34.25
2018-06-20T08:41:54.830Z,32.96
2018-06-20T08:44:23.819Z,32.60
2018-06-20T08:46:52.761Z,32.30
2018-06-20T08:49:21.725Z,31.59
2018-06-20T08:51:50.619Z,32.56
2018-06-20T08:54:19.620Z,33.02
2018-06-20T08:56:48.550Z,32.87
2018-06-20T08:59:17.645Z,32.99
2018-06-20T09:01:46.639Z,33.30
2018-06-20T09:04:20.790Z,30.70
2018-06-20T09:06:54.887Z,30.86
2018-06-20T09:09:28.764Z,29.23
2018-06-20T09:12:02.861Z,30.71
2018-06-20T09:14:36.184Z,30.58
2018-06-20T09:17:10.291Z,30.99
2018-06-20T09:19:50.422Z,29.82
2018-06-20T09:22:19.560Z,29.41
2018-06-20T09:24:48.648Z,28.48
2018-06-20T09:27:17.585Z,28.62
2018-06-20T09:29:46.481Z,28.47
2018-06-20T09:32:15.855Z,27.39
2018-06-20T09:34:45.452Z,27.38
2018-06-20T09:37:14.469Z,26.69
2018-06-20T09:39:43.536Z,27.01
2018-06-20T09:42:12.408Z,28.79
2018-06-20T09:44:41.369Z,25.17
2018-06-20T09:47:10.256Z,24.45
2018-06-20T09:49:39.175Z,22.77
2018-06-20T09:52:08.171Z,25.65
2018-06-20T09:54:37.130Z,26.57
2018-06-20T09:57:06.149Z,26.99
2018-06-20T09:59:40.053Z,26.33
2018-06-20T10:02:14.046Z,26.15
2018-06-20T10:04:48.028Z,27.29
2018-06-20T10:07:25.864Z,27.19
2018-06-20T10:12:03.355Z,27.69
2018-06-20T10:14:32.422Z,28.28
2018-06-20T10:17:01.331Z,27.50
2018-06-20T10:19:30.248Z,25.86
2018-06-20T10:21:59.187Z,24.90
2018-06-20T10:24:28.146Z,25.99
2018-06-20T10:26:57.147Z,24.53
2018-06-20T10:29:26.089Z,26.03
2018-06-20T10:31:55.971Z,25.51
2018-06-20T10:34:24.867Z,23.90
2018-06-20T10:36:53.802Z,24.67
2018-06-20T10:39:22.723Z,22.83
2018-06-20T10:41:51.704Z,23.38
2018-06-20T10:44:20.694Z,22.89
2018-06-20T10:46:54.908Z,24.24
2018-06-20T10:49:24.064Z,23.85
2018-06-20T10:51:53.007Z,25.10
2018-06-20T10:54:21.928Z,26.15
2018-06-20T10:56:56.171Z,25.31
2018-06-20T10:59:30.258Z,25.11
2018-06-20T11:02:04.434Z,26.26
2018-06-20T11:04:38.353Z,24.67
2018-06-20T11:07:12.519Z,25.24
2018-06-20T11:09:46.508Z,24.84
2018-06-20T11:12:20.707Z,24.74
2018-06-20T11:14:49.610Z,23.93
2018-06-20T11:17:18.586Z,23.83
2018-06-20T11:19:47.548Z,24.76
2018-06-20T11:22:16.508Z,24.13
2018-06-20T11:24:45.386Z,22.13
2018-06-20T11:27:14.863Z,22.78
2018-06-20T11:29:43.746Z,23.47
2018-06-20T11:32:12.688Z,24.83
2018-06-20T11:34:41.802Z,24.14
2018-06-20T11:37:17.439Z,24.24
2018-06-20T11:39:46.559Z,23.34
2018-06-20T11:42:15.680Z,24.29
2018-06-20T11:44:44.630Z,23.21
2018-06-20T11:51:01.395Z,23.88
2018-06-20T11:53:30.492Z,23.32
2018-06-20T12:01:50.222Z,22.33
2018-06-20T12:04:24.295Z,21.49
2018-06-20T12:06:58.595Z,22.11
2018-06-20T12:09:33.147Z,22.34
2018-06-20T12:12:14.953Z,21.46
2018-06-20T12:14:49.852Z,21.88
2018-06-20T12:17:29.333Z,22.08
2018-06-20T12:20:16.951Z,22.52
2018-06-20T12:25:35.964Z,23.76
2018-06-20T12:29:55.098Z,23.31
2018-06-20T12:32:30.512Z,24.22
2018-06-20T12:35:04.875Z,22.51
2018-06-20T12:37:39.010Z,23.19
2018-06-20T12:40:13.545Z,21.93
2018-06-20T12:44:55.246Z,20.02
2018-06-20T12:47:37.629Z,20.42
2018-06-20T12:50:13.570Z,21.97
2018-06-20T12:52:42.734Z,21.94
2018-06-20T12:55:12.336Z,22.71
2018-06-20T12:57:43.885Z,22.71
2018-06-20T13:00:16.820Z,24.00
2018-06-20T13:02:46.540Z,23.28
2018-06-20T13:05:16.134Z,23.97
2018-06-20T13:08:47.726Z,23.14
2018-06-20T13:11:16.814Z,24.08
2018-06-20T13:13:45.873Z,22.85
2018-06-20T13:16:14.884Z,23.77
2018-06-20T13:18:55.576Z,23.10
2018-06-20T13:21:24.618Z,24.40
2018-06-20T13:23:53.642Z,24.49
2018-06-20T13:26:23.644Z,25.03
2018-06-20T13:28:53.141Z,25.01
2018-06-20T13:31:27.603Z,24.50
2018-06-20T13:34:01.722Z,24.26
2018-06-20T13:36:36.217Z,25.05
2018-06-20T13:39:12.752Z,26.32
2018-06-20T13:41:47.723Z,25.05
2018-06-20T13:44:21.721Z,26.60
2018-06-20T13:49:01.570Z,25.79
2018-06-20T13:51:30.695Z,26.25
2018-06-20T13:53:59.926Z,26.31
2018-06-20T13:56:29.095Z,25.35
2018-06-20T13:58:58.193Z,26.34
2018-06-20T14:01:27.333Z,24.92
2018-06-20T14:03:56.411Z,24.58
2018-06-20T14:06:25.255Z,24.99
2018-06-20T14:08:54.230Z,24.97
2018-06-20T14:11:23.275Z,25.81
2018-06-20T14:13:52.340Z,25.26
2018-06-20T14:16:21.460Z,25.33
2018-06-20T14:18:50.527Z,25.42
2018-06-20T14:21:24.704Z,24.72
2018-06-20T14:23:53.800Z,26.12
2018-06-20T14:26:23.503Z,24.92
2018-06-20T14:28:52.627Z,23.99
2018-06-20T14:31:27.008Z,24.56
2018-06-20T14:34:01.278Z,24.18
2018-06-20T14:36:35.505Z,24.91
2018-06-20T14:39:11.809Z,24.94
2018-06-20T14:41:45.800Z,25.62
2018-06-20T14:44:14.817Z,25.79
2018-06-20T14:46:43.860Z,24.09
2018-06-20T14:49:13.092Z,24.17
2018-06-20T14:51:42.150Z,23.98
2018-06-20T14:54:11.245Z,24.28
2018-06-20T14:56:40.404Z,25.39
2018-06-20T14:59:09.436Z,24.61
2018-06-20T15:01:38.569Z,25.30
2018-06-20T15:04:07.698Z,23.83
2018-06-20T15:06:36.752Z,25.25
2018-06-20T15:09:08.000Z,25.20
2018-06-20T15:11:37.267Z,24.13
2018-06-20T15:14:06.338Z,24.19
2018-06-20T15:16:40.392Z,25.31
2018-06-20T15:19:09.339Z,25.75
2018-06-20T15:21:38.347Z,26.00
2018-06-20T15:24:07.200Z,26.33
2018-06-20T15:26:41.158Z,25.88
2018-06-20T15:29:15.187Z,25.37
2018-06-20T15:31:49.143Z,25.01
2018-06-20T15:34:23.043Z,25.59
2018-06-20T15:36:57.016Z,26.98
2018-06-20T15:39:26.096Z,27.12
2018-06-20T15:41:55.123Z,27.76
2018-06-20T15:44:24.065Z,28.78
2018-06-20T15:46:53.028Z,29.31
2018-06-20T15:49:21.902Z,30.10
2018-06-20T15:51:50.793Z,30.44
2018-06-20T15:54:19.830Z,30.35
2018-06-20T15:56:48.810Z,30.89
2018-06-20T15:59:17.732Z,31.40
2018-06-20T16:01:46.795Z,31.30
2018-06-20T16:04:15.717Z,31.23
2018-06-20T16:06:44.754Z,31.18
2018-06-20T16:09:18.792Z,32.22
2018-06-20T16:11:47.755Z,31.71
2018-06-20T16:14:16.864Z,31.09
2018-06-20T16:16:45.994Z,31.69
2018-06-20T16:19:19.994Z,31.28
2018-06-20T16:21:54.074Z,31.16
2018-06-20T16:24:28.105Z,31.65
2018-06-20T16:27:02.273Z,31.80
2018-06-20T16:29:36.276Z,32.95
2018-06-20T16:32:05.278Z,32.35
2018-06-20T16:34:34.285Z,32.59
2018-06-20T16:37:03.196Z,33.55
2018-06-20T16:39:32.162Z,33.07
2018-06-20T16:42:01.145Z,34.00
2018-06-20T16:44:31.091Z,33.32
2018-06-20T16:47:00.184Z,34.38
2018-06-20T16:49:29.131Z,34.42
2018-06-20T16:51:58.170Z,35.14
2018-06-20T16:54:27.123Z,34.97
2018-06-20T16:56:55.980Z,34.92
2018-06-20T16:59:25.000Z,35.58
2018-06-20T17:01:59.025Z,35.37
2018-06-20T17:04:28.167Z,35.28
2018-06-20T17:06:58.185Z,36.07
2018-06-20T17:09:27.385Z,35.64
2018-06-20T17:12:01.388Z,36.16
2018-06-20T17:14:36.707Z,36.42
2018-06-20T17:17:11.138Z,37.03
2018-06-20T17:19:45.470Z,37.14
2018-06-20T17:24:23.231Z,36.45
2018-06-20T17:26:52.240Z,37.69
2018-06-20T17:29:21.380Z,37.16
2018-06-20T17:31:50.605Z,36.94
2018-06-20T17:34:19.855Z,37.70
2018-06-20T17:36:49.168Z,37.65
2018-06-20T17:39:18.510Z,36.65
2018-06-20T17:41:47.608Z,37.15
2018-06-20T17:44:16.702Z,36.52
2018-06-20T17:46:46.025Z,36.75
2018-06-20T17:49:15.697Z,36.72
2018-06-20T17:51:44.845Z,36.90
2018-06-20T17:54:13.802Z,36.79
2018-06-20T17:56:42.959Z,36.91
2018-06-20T17:59:12.575Z,37.66
2018-06-20T18:01:41.537Z,37.18
2018-06-20T18:04:11.788Z,37.40
2018-06-20T18:06:45.792Z,37.83
2018-06-20T18:09:19.815Z,38.65
2018-06-20T18:11:54.071Z,38.14
2018-06-20T18:14:28.170Z,38.41
2018-06-20T18:16:57.945Z,39.21
2018-06-20T18:19:27.033Z,39.57
2018-06-20T18:21:56.008Z,39.41
2018-06-20T18:24:25.553Z,38.63
2018-06-20T18:26:54.959Z,39.52
2018-06-20T18:29:24.087Z,39.41
2018-06-20T18:31:53.280Z,39.73
2018-06-20T18:34:22.283Z,39.07
2018-06-20T18:36:51.375Z,39.18
2018-06-20T18:39:20.466Z,39.52
2018-06-20T18:41:49.636Z,40.72
2018-06-20T18:44:18.813Z,40.06
2018-06-20T18:46:52.027Z,40.94
2018-06-20T18:49:21.400Z,41.26
2018-06-20T18:51:50.455Z,41.12
2018-06-20T18:54:19.665Z,41.18
2018-06-20T18:56:48.956Z,41.47
2018-06-20T18:59:23.972Z,41.59
2018-06-20T19:01:57.968Z,41.93
2018-06-20T19:04:33.130Z,42.12
2018-06-20T19:07:08.641Z,43.06
2018-06-20T19:09:37.964Z,42.92
2018-06-20T19:12:07.236Z,42.87
2018-06-20T19:14:36.534Z,44.66
2018-06-20T19:17:08.607Z,45.50
2018-06-20T19:19:40.572Z,46.37
2018-06-20T19:22:09.662Z,46.71
2018-06-20T19:24:38.834Z,47.12
2018-06-20T19:27:07.952Z,47.31
2018-06-20T19:29:37.526Z,47.20
2018-06-20T19:32:06.545Z,47.24
2018-06-20T19:34:35.707Z,47.79
2018-06-20T19:37:04.958Z,47.23
2018-06-20T19:39:39.080Z,47.54
2018-06-20T19:42:08.317Z,48.12
2018-06-20T19:44:37.433Z,47.47
2018-06-20T19:47:07.209Z,48.57
2018-06-20T19:49:36.169Z,47.96
2018-06-20T19:52:05.389Z,48.18
2018-06-20T19:54:34.430Z,47.94
2018-06-20T19:57:03.427Z,48.05
2018-06-20T19:59:32.496Z,48.19
2018-06-20T20:02:01.519Z,49.42
2018-06-20T20:04:31.637Z,49.22
2018-06-20T20:07:00.835Z,48.31
2018-06-20T20:09:30.093Z,49.17
2018-06-20T20:11:59.305Z,49.03
2018-06-20T20:14:28.453Z,49.96
2018-06-20T20:16:57.617Z,49.71
2018-06-20T20:19:26.868Z,49.57
2018-06-20T20:21:56.058Z,49.55
2018-06-20T20:24:25.357Z,49.51
2018-06-20T20:26:54.644Z,50.52
2018-06-20T20:29:24.104Z,49.51
2018-06-20T20:31:53.548Z,51.46
2018-06-20T20:34:22.558Z,51.88
2018-06-20T20:36:51.788Z,51.82
2018-06-20T20:39:20.877Z,52.35
2018-06-20T20:41:50.387Z,52.13
2018-06-20T20:44:19.861Z,53.61
2018-06-20T20:46:49.143Z,53.75
2018-06-20T20:49:18.627Z,54.37
2018-06-20T20:51:47.756Z,54.39
2018-06-20T20:54:16.724Z,55.25
2018-06-20T20:56:46.033Z,55.66
2018-06-20T20:59:15.209Z,55.49
2018-06-20T21:01:44.319Z,54.85
2018-06-20T21:04:14.018Z,54.52
2018-06-20T21:06:43.078Z,55.45
2018-06-20T21:09:12.400Z,55.84
2018-06-20T21:11:43.489Z,55.86
2018-06-20T21:14:12.566Z,55.56
2018-06-20T21:16:41.727Z,55.45
2018-06-20T21:19:10.953Z,55.31
2018-06-20T21:21:40.033Z,56.27
2018-06-20T21:24:09.210Z,55.79
2018-06-20T21:26:39.193Z,56.54
2018-06-20T21:29:08.300Z,56.14
2018-06-20T21:31:37.489Z,56.65
2018-06-20T21:34:06.601Z,56.30
2018-06-20T21:36:35.658Z,56.54
2018-06-20T21:39:06.732Z,55.87
2018-06-20T21:41:36.035Z,56.51
2018-06-20T21:44:05.149Z,57.41
2018-06-20T21:46:34.284Z,57.21
2018-06-20T21:49:03.486Z,57.88
2018-06-20T21:51:33.203Z,58.22
2018-06-20T21:54:02.414Z,58.51
2018-06-20T21:56:31.339Z,58.89
2018-06-20T21:59:00.392Z,58.35
2018-06-20T22:01:29.363Z,59.06
2018-06-20T22:03:58.453Z,58.90
2018-06-20T22:06:27.588Z,58.85
2018-06-20T22:08:56.703Z,58.39
2018-06-20T22:11:25.917Z,58.65
2018-06-20T22:13:55.040Z,59.66
2018-06-20T22:16:24.235Z,59.28
2018-06-20T22:18:53.228Z,60.46
2018-06-20T22:21:22.215Z,60.83
2018-06-20T22:24:08.425Z,61.01
2018-06-20T22:26:37.867Z,60.56
2018-06-20T22:29:07.169Z,60.99
2018-06-20T22:31:36.254Z,61.35
2018-06-20T22:34:05.279Z,62.06
2018-06-20T22:36:34.349Z,59.50
2018-06-20T22:39:03.560Z,59.95
2018-06-20T22:41:32.775Z,58.85
2018-06-20T22:44:02.845Z,59.00
2018-06-20T22:46:32.022Z,59.30
2018-06-20T22:49:01.048Z,59.14
2018-06-20T22:51:30.047Z,58.64
2018-06-20T22:53:59.176Z,58.49
2018-06-20T22:56:28.412Z,59.16
2018-06-20T22:58:57.419Z,58.87
2018-06-20T23:01:26.384Z,59.82
2018-06-20T23:03:55.565Z,60.10
2018-06-20T23:06:25.066Z,59.44
2018-06-20T23:08:54.317Z,60.62
2018-06-20T23:11:23.489Z,60.57
2018-06-20T23:13:52.727Z,60.94
2018-06-20T23:16:22.139Z,60.72
2018-06-20T23:18:52.243Z,61.33
2018-06-20T23:21:21.382Z,62.05
2018-06-20T23:23:50.376Z,61.65
2018-06-20T23:26:19.338Z,62.61
2018-06-20T23:28:48.326Z,62.96
2018-06-20T23:31:17.544Z,63.27
2018-06-20T23:33:46.445Z,64.15
2018-06-20T23:36:15.687Z,63.65
2018-06-20T23:38:44.683Z,64.30
2018-06-20T23:41:13.997Z,64.24
2018-06-20T23:43:43.918Z,64.14
2018-06-20T23:46:13.104Z,63.89
2018-06-20T23:48:42.065Z,63.75
2018-06-20T23:51:11.318Z,63.87
2018-06-20T23:53:40.621Z,64.65
2018-06-20T23:56:09.848Z,64.77
2018-06-20T23:58:38.905Z,65.18
